Time;durP1;ratioP1;P1;durP2;ratioP2;P2;SDS_P1;SDS_P2;PMS_P1;PMS_P2;Temp;Humidity;BMP_temperature;BMP_pressure;BME280_temperature;BME280_humidity;BME280_pressure;Samples;Min_cycle;Max_cycle;Signal;HPM_P1;HPM_P2
2022/10/07 00:01:25;;;;;;;5.43;2.37;;;;;;;5.33;100.00;97943.78;10493790;28;20187;-61
2022/10/07 00:06:25;;;;;;;6.00;2.03;;;;;;;5.28;100.00;97940.63;10492643;28;20230;-61
2022/10/07 00:11:27;;;;;;;3.87;1.97;;;;;;;5.20;100.00;97935.88;10494909;28;20304;-61
2022/10/07 00:16:30;;;;;;;10.40;2.47;;;;;;;5.27;100.00;97928.59;10493329;28;20206;-60
2022/10/07 00:21:32;;;;;;;7.10;1.97;;;;;;;5.21;100.00;97927.19;10490715;28;20282;-62
2022/10/07 00:26:34;;;;;;;3.67;1.93;;;;;;;5.14;100.00;97931.88;10491918;28;20959;-59
2022/10/07 00:31:35;;;;;;;7.40;2.63;;;;;;;5.07;100.00;97927.16;10474510;28;20198;-60
2022/10/07 00:36:38;;;;;;;4.33;2.20;;;;;;;5.07;100.00;97917.63;10491084;28;20255;-61
2022/10/07 00:41:41;;;;;;;5.37;2.60;;;;;;;5.15;100.00;97912.78;10492984;28;20210;-61
2022/10/07 00:46:42;;;;;;;5.70;2.20;;;;;;;5.12;100.00;97909.56;10470348;28;20296;-61
2022/10/07 00:51:43;;;;;;;8.53;2.20;;;;;;;5.21;100.00;97897.75;10492081;28;20199;-60
2022/10/07 00:56:44;;;;;;;4.10;2.10;;;;;;;5.21;100.00;97897.75;10491904;28;20219;-60
2022/10/07 01:01:45;;;;;;;4.53;2.60;;;;;;;5.13;100.00;97899.06;10489137;28;20203;-60
2022/10/07 01:06:45;;;;;;;6.77;2.33;;;;;;;5.17;100.00;97894.50;10491262;28;20223;-60
2022/10/07 01:11:52;;;;;;;6.50;2.30;;;;;;;5.11;100.00;97893.13;10473610;28;20703;-59
2022/10/07 01:17:15;;;;;;;7.77;2.57;;;;;;;5.20;100.00;97890.91;10490753;28;20238;-60
2022/10/07 01:22:27;;;;;;;9.40;2.13;;;;;;;5.25;100.00;97881.88;10472782;28;20192;-59
2022/10/07 01:27:28;;;;;;;6.13;2.20;;;;;;;5.24;100.00;97871.59;10451786;28;20591;-60
2022/10/07 01:32:41;;;;;;;8.90;2.93;;;;;;;5.27;100.00;97868.81;10453186;28;20202;-60
2022/10/07 01:37:44;;;;;;;8.23;3.03;;;;;;;5.14;100.00;97860.94;10446606;28;20227;-59
2022/10/07 01:42:46;;;;;;;12.80;3.33;;;;;;;5.16;100.00;97856.47;10472863;28;20226;-60
2022/10/07 01:47:47;;;;;;;7.67;2.77;;;;;;;5.14;100.00;97845.34;10470971;28;20581;-58
2022/10/07 01:53:14;;;;;;;7.23;2.90;;;;;;;5.20;100.00;97844.16;10489927;28;20202;-60
2022/10/07 01:58:40;;;;;;;5.70;2.90;;;;;;;5.23;100.00;97841.34;10460647;28;20219;-59
2022/10/07 02:03:50;;;;;;;13.93;3.10;;;;;;;5.21;100.00;97832.81;10471170;28;20242;-60
2022/10/07 02:08:53;;;;;;;4.27;2.73;;;;;;;5.11;100.00;97828.19;10469926;28;20228;-60
2022/10/07 02:14:17;;;;;;;5.77;3.50;;;;;;;5.13;100.00;97830.69;10470117;28;20236;-60
2022/10/07 02:19:53;;;;;;;8.03;3.53;;;;;;;5.12;100.00;97824.66;10487900;28;20215;-60
2022/10/07 02:24:57;;;;;;;11.70;3.80;;;;;;;5.01;100.00;97814.13;10482874;28;20231;-60
2022/10/07 02:30:03;;;;;;;9.07;3.60;;;;;;;4.96;100.00;97813.53;10470160;28;20219;-61
2022/10/07 02:35:12;;;;;;;8.13;3.53;;;;;;;4.99;100.00;97814.22;10469170;28;20222;-59
2022/10/07 02:40:13;;;;;;;10.07;3.80;;;;;;;4.99;100.00;97801.22;10470303;28;20629;-60
2022/10/07 02:45:42;;;;;;;11.33;4.50;;;;;;;5.10;100.00;97802.31;10473258;28;20582;-60
2022/10/07 02:50:46;;;;;;;7.43;4.23;;;;;;;5.05;100.00;97802.59;10470738;28;20282;-61
2022/10/07 02:55:48;;;;;;;8.63;4.60;;;;;;;5.10;100.00;97800.56;10496586;28;20203;-61
2022/10/07 03:00:51;;;;;;;15.30;5.50;;;;;;;5.14;100.00;97801.19;10478552;28;20198;-61
2022/10/07 03:05:54;;;;;;;10.90;5.93;;;;;;;5.29;100.00;97808.03;10459977;28;20311;-61
2022/10/07 03:10:56;;;;;;;7.73;5.00;;;;;;;5.24;100.00;97810.09;10479138;28;20191;-61
2022/10/07 03:15:57;;;;;;;8.63;5.23;;;;;;;5.28;100.00;97805.53;10477276;28;20578;-59
2022/10/07 03:21:00;;;;;;;11.80;5.87;;;;;;;5.31;100.00;97793.19;10473600;28;20192;-59
2022/10/07 03:26:00;;;;;;;14.30;5.73;;;;;;;5.28;100.00;97785.59;10471337;28;20292;-60
2022/10/07 03:31:07;;;;;;;12.33;6.27;;;;;;;5.27;100.00;97786.50;10490886;28;20270;-59
2022/10/07 03:36:08;;;;;;;9.53;5.13;;;;;;;5.28;100.00;97777.81;10474519;28;20219;-59
2022/10/07 03:41:10;;;;;;;9.57;6.67;;;;;;;5.28;100.00;97763.97;10475068;28;20282;-60
2022/10/07 03:46:12;;;;;;;17.70;7.50;;;;;;;5.40;100.00;97765.78;10473207;28;20319;-61
2022/10/07 03:51:14;;;;;;;13.37;7.43;;;;;;;5.38;100.00;97764.22;10474248;28;20278;-60
2022/10/07 03:56:14;;;;;;;12.90;7.17;;;;;;;5.40;100.00;97760.56;10473876;28;20294;-60
2022/10/07 04:01:17;;;;;;;12.97;6.93;;;;;;;5.32;100.00;97763.66;10473426;28;20198;-60
2022/10/07 04:06:22;;;;;;;17.77;8.20;;;;;;;5.27;100.00;97760.53;10471231;28;20215;-60
2022/10/07 04:11:24;;;;;;;22.63;8.17;;;;;;;5.42;100.00;97755.28;10473563;28;20677;-61
2022/10/07 04:16:26;;;;;;;15.57;8.07;;;;;;;5.40;100.00;97749.34;10473518;28;20234;-61
2022/10/07 04:21:28;;;;;;;13.47;9.00;;;;;;;5.43;100.00;97742.19;10468350;28;20223;-61
2022/10/07 04:26:29;;;;;;;19.23;9.93;;;;;;;5.43;100.00;97738.75;10472951;28;20647;-61
2022/10/07 04:31:30;;;;;;;17.03;8.40;;;;;;;5.52;100.00;97727.78;10489894;28;20207;-60
2022/10/07 04:36:35;;;;;;;12.33;7.40;;;;;;;5.46;100.00;97725.56;10432537;28;1038810;-59
2022/10/07 04:41:39;;;;;;;16.17;7.90;;;;;;;5.48;100.00;97727.16;10473651;28;20223;-59
2022/10/07 04:46:44;;;;;;;17.03;8.90;;;;;;;5.39;100.00;97719.94;10474159;28;20231;-61
2022/10/07 04:51:48;;;;;;;17.50;7.87;;;;;;;5.47;100.00;97716.84;10471909;28;20282;-60
2022/10/07 04:56:49;;;;;;;13.63;7.87;;;;;;;5.52;100.00;97718.19;10474319;28;20199;-60
2022/10/07 05:01:51;;;;;;;15.53;8.73;;;;;;;5.61;100.00;97721.16;10473235;28;20191;-61
2022/10/07 05:06:51;;;;;;;12.97;7.93;;;;;;;5.57;100.00;97710.09;10473956;28;20226;-59
2022/10/07 05:11:54;;;;;;;11.00;6.87;;;;;;;5.60;100.00;97707.31;10473025;28;20195;-60
2022/10/07 05:16:55;;;;;;;10.40;6.27;;;;;;;5.57;100.00;97698.88;10468886;28;20203;-61
2022/10/07 05:21:58;;;;;;;11.17;6.67;;;;;;;5.67;100.00;97689.56;10469368;28;20197;-61
2022/10/07 05:26:59;;;;;;;11.53;7.33;;;;;;;5.94;100.00;97697.28;10455029;28;20215;-60
2022/10/07 05:32:01;;;;;;;13.27;8.33;;;;;;;6.11;100.00;97677.97;10469229;28;20282;-61
2022/10/07 05:37:01;;;;;;;24.37;16.87;;;;;;;6.17;100.00;97668.88;10470565;28;21070;-60
2022/10/07 05:42:02;;;;;;;18.73;13.17;;;;;;;6.43;100.00;97670.53;10470978;28;20276;-59
2022/10/07 05:47:09;;;;;;;21.57;12.70;;;;;;;6.57;100.00;97664.38;10472713;28;20246;-62
2022/10/07 05:52:10;;;;;;;13.13;7.47;;;;;;;6.74;100.00;97657.16;10470220;28;20191;-60
2022/10/07 05:57:12;;;;;;;13.07;6.07;;;;;;;6.99;100.00;97653.59;10473550;28;20210;-61
2022/10/07 06:02:15;;;;;;;8.00;5.27;;;;;;;7.19;100.00;97639.13;10471787;28;20345;-60
2022/10/07 06:07:17;;;;;;;7.70;4.60;;;;;;;7.44;100.00;97640.78;10453896;28;20222;-58
2022/10/07 06:17:42;;;;;;;6.90;3.63;;;;;;;7.80;100.00;97618.06;10469227;28;20226;-60
2022/10/07 06:22:44;;;;;;;12.03;4.13;;;;;;;7.90;100.00;97612.16;10472606;28;20199;-58
2022/10/07 06:27:46;;;;;;;8.33;3.57;;;;;;;8.46;100.00;97604.34;10462913;28;20211;-61
2022/10/07 06:32:47;;;;;;;6.13;3.83;;;;;;;8.71;100.00;97602.38;10470948;28;20202;-61
2022/10/07 06:37:47;;;;;;;10.83;3.53;;;;;;;9.21;100.00;97594.84;10483401;28;20239;-60
2022/10/07 06:42:48;;;;;;;5.50;2.80;;;;;;;9.51;100.00;97590.66;10468605;28;20191;-61
2022/10/07 06:47:56;;;;;;;15.57;3.00;;;;;;;10.27;100.00;97577.22;10460520;28;20203;-60
2022/10/07 06:52:57;;;;;;;4.15;2.60;;;;;;;10.55;100.00;97576.66;10489904;28;20187;-60
2022/10/07 06:57:58;;;;;;;10.82;2.60;;;;;;;10.44;100.00;97570.56;10489360;28;20214;-61
2022/10/07 07:03:01;;;;;;;4.32;2.30;;;;;;;10.78;100.00;97569.38;10489997;28;20699;-61
2022/10/07 07:08:01;;;;;;;12.65;2.53;;;;;;;11.23;100.00;97563.59;10471726;28;20207;-61
2022/10/07 07:13:02;;;;;;;5.35;2.35;;;;;;;11.85;100.00;97534.28;10490060;28;20601;-62
2022/10/07 07:18:04;;;;;;;7.60;2.17;;;;;;;12.09;100.00;97526.75;10471579;28;20557;-62
2022/10/07 07:23:06;;;;;;;10.23;2.20;;;;;;;12.04;100.00;97536.88;10471639;28;20231;-62
2022/10/07 07:28:08;;;;;;;5.22;1.85;;;;;;;12.52;99.31;97521.00;10471397;28;20207;-61
2022/10/07 07:33:08;;;;;;;7.25;1.77;;;;;;;12.82;95.32;97504.84;10476215;28;20189;-61
2022/10/07 07:38:09;;;;;;;6.30;1.90;;;;;;;13.02;92.64;97492.34;10450425;28;20235;-61
2022/10/07 07:43:10;;;;;;;5.15;2.25;;;;;;;13.12;93.75;97502.78;10437301;28;20216;-62
2022/10/07 07:48:12;;;;;;;4.57;1.60;;;;;;;13.39;89.67;97469.44;10455457;28;20688;-61
2022/10/07 07:53:12;;;;;;;4.82;2.25;;;;;;;13.34;86.29;97456.75;10436852;28;20196;-60
2022/10/07 07:58:13;;;;;;;6.22;1.48;;;;;;;14.35;86.84;97460.44;10436511;28;20622;-61
2022/10/07 08:03:14;;;;;;;3.63;1.50;;;;;;;14.09;82.52;97434.22;10436595;28;20223;-60
2022/10/07 08:08:15;;;;;;;5.15;1.50;;;;;;;14.02;79.58;97410.28;10437088;28;20595;-61
2022/10/07 08:13:17;;;;;;;3.50;1.55;;;;;;;13.94;80.43;97409.47;10436409;28;20180;-61
2022/10/07 08:18:18;;;;;;;5.72;1.50;;;;;;;14.37;79.60;97408.38;10435847;28;20223;-60
2022/10/07 08:23:18;;;;;;;3.80;1.50;;;;;;;14.73;78.18;97396.72;10436026;28;20751;-60
2022/10/07 08:28:19;;;;;;;2.78;1.70;;;;;;;15.19;73.36;97336.31;10453766;28;20257;-60
2022/10/07 08:33:20;;;;;;;2.22;1.35;;;;;;;15.73;70.21;97317.06;10435369;28;20196;-61
2022/10/07 08:38:21;;;;;;;3.60;1.60;;;;;;;15.57;72.42;97357.56;10481851;28;20686;-61
2022/10/07 08:43:22;;;;;;;7.35;1.65;;;;;;;15.62;72.99;97362.34;10492883;28;20227;-61
2022/10/07 08:48:28;;;;;;;3.05;1.40;;;;;;;16.19;70.82;97342.72;10494296;28;20237;-61
2022/10/07 08:53:32;;;;;;;6.25;1.60;;;;;;;14.93;72.67;97354.97;10476181;28;20458;-60
2022/10/07 08:58:54;;;;;;;2.50;1.42;;;;;;;16.24;71.77;97356.22;10493229;28;20301;-62
2022/10/07 09:04:09;;;;;;;3.72;1.50;;;;;;;16.97;67.83;97316.09;10493448;28;20211;-61
2022/10/07 09:09:13;;;;;;;2.28;1.38;;;;;;;17.50;65.09;97286.84;10475799;28;20218;-61
2022/10/07 09:14:27;;;;;;;2.78;1.30;;;;;;;17.74;65.68;97306.88;10493079;28;20211;-61
2022/10/07 09:19:42;;;;;;;4.93;1.60;;;;;;;18.31;63.69;97287.44;10474642;28;20748;-61
2022/10/07 09:24:44;;;;;;;2.63;1.42;;;;;;;19.53;60.58;97257.97;10474648;28;20258;-61
2022/10/07 09:29:45;;;;;;;3.30;1.27;;;;;;;19.69;57.88;97225.66;10492918;28;20257;-62
2022/10/07 09:34:46;;;;;;;4.38;1.75;;;;;;;17.32;65.59;97306.59;10492065;28;20203;-62
2022/10/07 09:39:51;;;;;;;3.22;1.13;;;;;;;19.22;62.41;97294.63;10492053;28;20211;-61
2022/10/07 09:44:53;;;;;;;4.53;1.88;;;;;;;20.02;59.63;97264.03;10492307;28;20215;-62
2022/10/07 09:49:58;;;;;;;2.25;1.77;;;;;;;17.44;67.35;97341.38;10473659;28;20212;-61
2022/10/07 09:55:33;;;;;;;1.80;1.60;;;;;;;18.68;65.13;97320.00;10491608;28;20618;-60
2022/10/07 10:00:41;;;;;;;2.88;1.65;;;;;;;18.79;63.65;97292.13;10491076;28;20612;-61
2022/10/07 10:05:59;;;;;;;5.97;2.10;;;;;;;19.09;62.99;97265.34;10491035;28;20306;-61
2022/10/07 10:11:03;;;;;;;5.82;2.20;;;;;;;18.07;65.44;97304.59;10473443;28;20684;-61
2022/10/07 10:16:08;;;;;;;3.55;2.65;;;;;;;16.88;70.20;97355.06;10490929;28;20207;-61
2022/10/07 10:21:36;;;;;;;4.10;2.10;;;;;;;17.73;69.65;97343.13;10472697;28;20191;-61
2022/10/07 10:26:52;;;;;;;4.57;3.05;;;;;;;17.73;71.95;97372.28;10472945;28;20719;-60
2022/10/07 10:32:14;;;;;;;9.02;2.80;;;;;;;17.66;72.34;97366.09;10472923;28;20194;-60
2022/10/07 10:37:17;;;;;;;7.55;3.53;;;;;;;17.60;69.17;97297.97;10490225;28;20243;-61
2022/10/07 10:42:23;;;;;;;6.53;3.10;;;;;;;18.03;69.42;97319.25;10490186;28;20191;-61
2022/10/07 10:47:51;;;;;;;8.80;2.53;;;;;;;18.84;66.69;97273.75;10490378;28;20223;-59
2022/10/07 10:53:20;;;;;;;7.07;2.50;;;;;;;19.82;64.59;97245.38;10472261;28;20721;-59
2022/10/07 10:58:46;;;;;;;4.88;2.47;;;;;;;19.24;65.06;97244.75;10489578;28;20238;-59
2022/10/07 11:03:59;;;;;;;3.78;2.30;;;;;;;18.64;64.75;97228.53;10490379;28;20271;-58
2022/10/07 11:09:00;;;;;;;6.05;2.75;;;;;;;18.34;61.93;97172.19;10496417;28;20227;-60
2022/10/07 11:14:06;;;;;;;3.70;2.05;;;;;;;18.38;61.74;97169.97;10480244;28;20195;-60
2022/10/07 11:19:21;;;;;;;8.20;2.60;;;;;;;18.13;64.20;97213.69;10480206;28;20211;-61
2022/10/07 11:24:31;;;;;;;2.80;2.17;;;;;;;19.22;58.82;97131.78;10479784;28;20262;-61
2022/10/07 11:29:34;;;;;;;2.95;2.00;;;;;;;19.95;55.33;97083.16;10497583;28;20207;-62
2022/10/07 11:34:55;;;;;;;4.13;2.28;;;;;;;17.80;61.00;97137.31;10497087;28;20551;-61
2022/10/07 11:39:56;;;;;;;8.25;3.03;;;;;;;17.89;62.31;97153.13;10479249;28;20219;-62
2022/10/07 11:45:01;;;;;;;5.57;2.45;;;;;;;19.18;61.37;97152.59;10496628;28;20207;-61
2022/10/07 11:50:15;;;;;;;4.85;2.83;;;;;;;19.20;61.62;97150.56;10496877;28;20628;-61
2022/10/07 11:55:22;;;;;;;3.47;2.70;;;;;;;21.19;56.89;97101.75;10478310;28;20183;-61
2022/10/07 12:00:31;;;;;;;2.42;2.22;;;;;;;23.99;50.68;97046.09;10478177;28;20195;-62
2022/10/07 12:05:34;;;;;;;4.57;2.40;;;;;;;22.45;52.74;97040.38;10495677;28;20302;-61
2022/10/07 12:10:34;;;;;;;3.65;2.40;;;;;;;23.73;49.58;97010.72;10496204;28;20283;-61
2022/10/07 12:15:37;;;;;;;4.50;2.60;;;;;;;21.21;58.42;97126.38;10477525;28;21150;-61
2022/10/07 12:20:49;;;;;;;2.80;2.50;;;;;;;23.21;52.02;97045.31;10477189;28;20571;-61
2022/10/07 12:25:51;;;;;;;5.63;3.05;;;;;;;20.98;56.78;97077.09;10495104;28;20234;-60
2022/10/07 12:30:54;;;;;;;3.25;2.28;;;;;;;22.73;53.21;97030.97;10477076;28;20215;-60
2022/10/07 12:35:54;;;;;;;3.70;2.58;;;;;;;22.35;53.32;97013.38;10494474;28;20231;-61
2022/10/07 12:41:03;;;;;;;5.20;2.53;;;;;;;24.77;47.73;96966.25;10494611;28;20657;-61
2022/10/07 12:46:08;;;;;;;5.05;2.40;;;;;;;23.52;52.14;97028.13;10476888;28;20776;-60
2022/10/07 12:51:18;;;;;;;6.57;2.88;;;;;;;23.38;52.24;97026.75;10476108;28;20192;-61
2022/10/07 12:56:21;;;;;;;3.53;1.88;;;;;;;24.23;50.40;97006.72;10493498;28;20211;-60
2022/10/07 13:01:38;;;;;;;4.45;2.03;;;;;;;23.40;49.42;96942.59;10476022;28;20183;-61
2022/10/07 13:06:59;;;;;;;4.85;2.00;;;;;;;25.31;47.21;96956.97;10475719;28;20284;-61
2022/10/07 13:12:21;;;;;;;4.15;2.05;;;;;;;25.06;47.32;96947.44;10475474;28;20199;-61
2022/10/07 13:17:34;;;;;;;5.30;2.50;;;;;;;24.37;49.50;96969.78;10493293;28;20207;-61
2022/10/07 13:22:35;;;;;;;6.43;1.92;;;;;;;26.41;45.13;96924.03;10474953;28;20191;-61
2022/10/07 13:27:37;;;;;;;4.40;1.90;;;;;;;25.43;46.38;96917.44;10492690;28;20223;-61
2022/10/07 13:32:38;;;;;;;4.47;1.65;;;;;;;26.39;43.58;96877.81;10491780;28;20607;-61
2022/10/07 13:37:44;;;;;;;4.15;1.50;;;;;;;26.73;42.22;96848.84;10492054;28;20305;-61
2022/10/07 13:42:45;;;;;;;6.53;1.67;;;;;;;26.73;42.55;96856.09;10492404;28;20195;-62
2022/10/07 13:47:48;;;;;;;5.72;1.73;;;;;;;26.80;41.51;96825.25;10473689;28;20720;-62
2022/10/07 13:52:49;;;;;;;3.00;1.35;;;;;;;26.21;41.84;96809.16;10474582;28;20203;-62
2022/10/07 13:57:49;;;;;;;3.45;1.65;;;;;;;25.09;45.61;96861.97;10490899;28;20211;-61
2022/10/07 14:02:50;;;;;;;4.55;1.85;;;;;;;26.36;42.21;96813.84;10473851;28;20191;-60
2022/10/07 14:07:53;;;;;;;4.38;1.67;;;;;;;27.35;42.52;96846.56;10473328;28;20693;-59
2022/10/07 14:12:58;;;;;;;2.10;1.52;;;;;;;27.60;41.63;96827.06;10491036;28;20188;-61
2022/10/07 14:18:09;;;;;;;3.53;1.85;;;;;;;28.35;39.76;96810.56;10473452;28;20199;-61
2022/10/07 14:23:29;;;;;;;5.10;1.67;;;;;;;28.02;41.16;96820.72;10488880;28;20262;-61
2022/10/07 14:28:34;;;;;;;4.65;1.77;;;;;;;28.20;40.38;96797.88;10452937;28;20681;-63
2022/10/07 14:39:23;;;;;;;3.53;1.70;;;;;;;28.24;38.99;96744.25;10434182;28;20244;-60
2022/10/07 14:44:24;;;;;;;9.27;1.70;;;;;;;27.82;40.18;96775.69;10440798;28;20654;-60
2022/10/07 14:49:25;;;;;;;5.03;1.42;;;;;;;28.48;40.23;96784.94;10444974;28;20222;-59
2022/10/07 14:54:26;;;;;;;3.28;1.60;;;;;;;28.03;40.84;96767.69;10437642;28;20226;-59
2022/10/07 14:59:26;;;;;;;7.78;1.83;;;;;;;29.59;38.42;96759.91;10420997;28;20262;-60
2022/10/07 15:04:27;;;;;;;4.27;1.57;;;;;;;28.70;39.93;96759.63;10432116;28;20219;-61
2022/10/07 15:09:27;;;;;;;5.00;1.97;;;;;;;29.10;39.36;96761.41;10439995;28;20558;-61
2022/10/07 15:14:28;;;;;;;5.03;1.50;;;;;;;28.70;39.99;96757.75;10430367;28;20455;-62
2022/10/07 15:19:28;;;;;;;8.93;2.37;;;;;;;28.37;40.72;96759.88;10410826;28;20584;-61
2022/10/07 15:24:30;;;;;;;8.57;2.20;;;;;;;26.68;42.77;96746.69;10407910;28;20832;-61
2022/10/07 15:29:31;;;;;;;4.57;2.00;;;;;;;23.76;48.74;96790.88;10432832;28;20517;-61
2022/10/07 15:34:31;;;;;;;4.90;2.80;;;;;;;20.42;58.31;96910.09;10427090;28;20742;-59
2022/10/07 15:39:31;;;;;;;7.57;2.10;;;;;;;20.34;61.40;96971.50;10472868;28;20279;-60
2022/10/07 15:44:32;;;;;;;4.95;2.22;;;;;;;19.21;66.24;96992.81;10481299;28;20915;-60
2022/10/07 15:49:32;;;;;;;5.80;2.38;;;;;;;17.68;73.30;97038.16;10480702;28;20276;-61
2022/10/07 15:54:34;;;;;;;8.65;2.50;;;;;;;15.98;82.76;97050.03;10485807;28;20203;-61
2022/10/07 15:59:34;;;;;;;7.70;2.85;;;;;;;15.48;86.99;97036.47;10487025;28;20223;-60
2022/10/07 16:04:35;;;;;;;7.75;3.63;;;;;;;14.44;96.55;97036.84;10491591;28;20584;-60
2022/10/07 16:09:35;;;;;;;7.30;4.00;;;;;;;14.42;100.00;97033.59;10482863;28;20556;-61
2022/10/07 16:14:35;;;;;;;7.57;4.60;;;;;;;14.26;100.00;97035.31;10471309;28;20612;-61
2022/10/07 16:19:36;;;;;;;12.80;4.57;;;;;;;13.97;100.00;97050.91;10453295;22;20734;-60
2022/10/07 16:24:38;;;;;;;19.35;6.95;;;;;;;13.83;100.00;97047.97;10413316;28;20220;-61
2022/10/07 16:34:58;;;;;;;12.25;5.13;;;;;;;13.47;100.00;97043.09;10381441;28;20227;-61
2022/10/07 16:39:58;;;;;;;15.82;5.05;;;;;;;13.36;100.00;97039.00;10414485;28;20299;-60
2022/10/07 16:44:58;;;;;;;8.85;4.53;;;;;;;13.30;100.00;97031.72;10373561;28;20227;-59
2022/10/07 16:49:59;;;;;;;8.18;4.07;;;;;;;13.29;100.00;97030.13;10405008;28;20208;-62
2022/10/07 16:54:59;;;;;;;9.98;3.85;;;;;;;13.23;100.00;97049.19;10413190;28;20255;-61
2022/10/07 16:59:59;;;;;;;21.60;11.10;;;;;;;13.18;100.00;97059.38;10410877;28;20212;-63
2022/10/07 17:05:00;;;;;;;6.50;4.70;;;;;;;13.03;100.00;97046.03;10412760;28;20702;-61
2022/10/07 17:10:00;;;;;;;12.95;5.60;;;;;;;13.10;100.00;97036.50;10411173;28;20690;-60
2022/10/07 17:15:01;;;;;;;14.05;8.38;;;;;;;13.15;100.00;97022.88;10407732;28;20189;-60
2022/10/07 17:20:02;;;;;;;10.50;5.10;;;;;;;13.07;100.00;97023.69;10407681;28;20232;-60
2022/10/07 17:25:04;;;;;;;9.10;4.85;;;;;;;13.02;100.00;97034.69;10408731;28;20213;-60
2022/10/07 17:30:04;;;;;;;9.13;4.80;;;;;;;13.05;100.00;97025.69;10371776;28;20214;-62
2022/10/07 17:35:07;;;;;;;10.40;5.65;;;;;;;13.03;100.00;97027.63;10412023;28;20196;-63
2022/10/07 17:40:07;;;;;;;9.82;6.13;;;;;;;13.17;100.00;97032.25;10429133;28;20209;-63
2022/10/07 17:45:10;;;;;;;16.25;7.30;;;;;;;13.12;100.00;97026.63;10423448;28;20255;-60
2022/10/07 17:50:11;;;;;;;14.40;7.82;;;;;;;13.05;100.00;97030.94;10411542;28;20602;-56
2022/10/07 17:55:12;;;;;;;18.00;8.00;;;;;;;12.97;100.00;97023.88;10395982;28;20193;-57
2022/10/07 18:00:13;;;;;;;18.60;8.77;;;;;;;13.04;100.00;97018.75;10410542;28;20220;-58
2022/10/07 18:05:13;;;;;;;17.85;10.68;;;;;;;12.96;100.00;97016.94;10408627;28;20246;-60
2022/10/07 18:10:13;;;;;;;20.13;12.82;;;;;;;12.90;100.00;97028.13;10403188;28;20216;-59
2022/10/07 18:15:20;;;;;;;20.50;12.20;;;;;;;12.80;100.00;97022.19;10407995;28;20193;-61
2022/10/07 18:20:21;;;;;;;36.65;21.48;;;;;;;12.79;100.00;97016.13;10385149;28;20240;-57
2022/10/07 18:25:22;;;;;;;20.20;12.32;;;;;;;12.88;100.00;97009.06;10409419;28;20695;-56
2022/10/07 18:30:23;;;;;;;22.88;12.52;;;;;;;12.82;100.00;96994.75;10389522;28;20225;-56
2022/10/07 18:35:23;;;;;;;24.90;12.55;;;;;;;12.63;100.00;97009.03;10389201;28;20615;-57
2022/10/07 18:40:23;;;;;;;21.60;11.52;;;;;;;12.39;100.00;96998.47;10407515;28;20608;-57
2022/10/07 18:45:24;;;;;;;23.30;11.77;;;;;;;12.33;100.00;96986.81;10406521;28;20236;-60
2022/10/07 18:50:24;;;;;;;16.35;10.35;;;;;;;12.28;100.00;96996.97;10407538;28;20211;-58
2022/10/07 18:55:25;;;;;;;18.13;11.48;;;;;;;12.04;100.00;96987.22;10407048;28;20184;-58
2022/10/07 19:00:25;;;;;;;21.00;12.60;;;;;;;11.81;100.00;96992.16;10406725;28;20295;-59
2022/10/07 19:05:26;;;;;;;36.72;21.52;;;;;;;11.78;100.00;96980.19;10406447;28;20760;-58
2022/10/07 19:10:27;;;;;;;21.95;13.13;;;;;;;11.60;100.00;96988.94;10406693;28;20205;-61
2022/10/07 19:15:27;;;;;;;23.55;12.25;;;;;;;11.69;100.00;96992.44;10407032;28;20336;-59
2022/10/07 19:20:27;;;;;;;21.92;12.15;;;;;;;11.59;100.00;96992.56;10371385;28;20364;-59
2022/10/07 19:25:46;;;;;;;25.20;12.53;;;;;;;11.44;100.00;96986.25;10365629;28;20359;-60
2022/10/07 19:30:47;;;;;;;23.05;12.18;;;;;;;11.42;100.00;96990.81;10367428;28;20239;-62
2022/10/07 19:35:54;;;;;;;24.25;11.95;;;;;;;11.34;100.00;96988.97;10368769;28;20217;-60
2022/10/07 19:40:56;;;;;;;26.02;11.73;;;;;;;11.20;100.00;96997.41;10373366;28;20206;-60
2022/10/07 19:46:00;;;;;;;25.10;11.83;;;;;;;11.14;100.00;96992.78;10368846;28;20893;-61
2022/10/07 19:51:08;;;;;;;24.67;11.87;;;;;;;11.18;100.00;96996.72;10359493;28;20259;-59
2022/10/07 19:56:30;;;;;;;25.25;11.68;;;;;;;11.09;100.00;96997.63;10367620;28;20735;-61
2022/10/07 20:01:35;;;;;;;28.73;14.17;;;;;;;10.79;100.00;96984.78;10360269;28;20197;-60
2022/10/07 20:06:36;;;;;;;19.73;11.07;;;;;;;10.82;100.00;96981.88;10368453;28;20237;-60
2022/10/07 20:11:36;;;;;;;22.07;10.97;;;;;;;10.77;100.00;96994.63;10371635;28;20193;-61
2022/10/07 20:16:37;;;;;;;23.03;11.37;;;;;;;10.66;100.00;96985.19;10375649;28;20301;-63
2022/10/07 20:21:38;;;;;;;21.40;11.70;;;;;;;10.54;100.00;96978.53;10418658;28;20574;-61
2022/10/07 20:26:40;;;;;;;21.77;10.67;;;;;;;10.50;100.00;96983.22;10412694;28;20239;-59
2022/10/07 20:31:41;;;;;;;17.53;10.53;;;;;;;10.58;100.00;96969.41;10412064;28;20536;-62
2022/10/07 20:36:41;;;;;;;20.77;10.33;;;;;;;10.45;100.00;96968.94;10402409;28;20212;-61
2022/10/07 20:47:02;;;;;;;22.30;11.03;;;;;;;10.50;100.00;96950.97;10440201;28;20254;-62
2022/10/07 20:52:05;;;;;;;24.47;10.17;;;;;;;10.39;100.00;96949.41;10411248;28;20636;-62
2022/10/07 20:57:06;;;;;;;17.23;9.90;;;;;;;10.35;100.00;96946.28;10444192;28;20203;-62
2022/10/07 21:02:08;;;;;;;19.70;8.73;;;;;;;10.29;100.00;96938.13;10450480;28;20196;-62
2022/10/07 21:07:09;;;;;;;25.37;10.77;;;;;;;10.10;100.00;96942.53;10427603;28;20612;-61
2022/10/07 21:12:12;;;;;;;21.37;9.53;;;;;;;10.16;100.00;96941.13;10401123;28;20194;-58
2022/10/07 21:17:12;;;;;;;24.73;9.30;;;;;;;10.12;100.00;96934.53;10393379;28;20769;-62
2022/10/07 21:22:13;;;;;;;18.70;8.90;;;;;;;10.05;100.00;96934.31;10409059;28;20200;-61
2022/10/07 21:27:13;;;;;;;22.83;8.67;;;;;;;10.00;100.00;96931.31;10406439;28;20299;-63
2022/10/07 21:32:14;;;;;;;17.33;9.40;;;;;;;9.84;100.00;96920.69;10408901;28;20271;-63
2022/10/07 21:37:14;;;;;;;15.20;9.40;;;;;;;9.83;100.00;96914.59;10408861;28;20211;-63
2022/10/07 21:42:15;;;;;;;14.50;8.73;;;;;;;9.75;100.00;96917.13;10407591;28;20189;-64
2022/10/07 21:47:15;;;;;;;14.77;6.93;;;;;;;9.83;100.00;96906.75;10408371;28;20690;-62
2022/10/07 21:52:16;;;;;;;20.23;8.07;;;;;;;9.72;100.00;96899.94;10408981;28;20196;-61
2022/10/07 21:57:17;;;;;;;15.90;6.90;;;;;;;9.74;100.00;96895.41;10408525;28;20213;-62
2022/10/07 22:02:18;;;;;;;19.33;6.77;;;;;;;9.78;100.00;96885.44;10407732;28;20271;-60
2022/10/07 22:12:37;;;;;;;16.70;6.20;;;;;;;10.05;100.00;96870.69;10408246;28;20279;-60
2022/10/07 22:17:37;;;;;;;16.73;6.37;;;;;;;10.06;100.00;96865.31;10408271;28;20909;-61
2022/10/07 22:22:38;;;;;;;17.53;6.20;;;;;;;10.06;100.00;96862.69;10408301;28;20603;-59
2022/10/07 22:27:38;;;;;;;13.73;6.33;;;;;;;10.03;100.00;96852.50;10414841;22;20249;-73
2022/10/07 22:32:39;;;;;;;14.13;5.90;;;;;;;10.02;100.00;96843.00;10406354;28;20243;-73
2022/10/07 22:37:39;;;;;;;12.47;6.40;;;;;;;10.03;100.00;96842.03;10408891;28;20619;-74
2022/10/07 22:42:44;;;;;;;18.50;6.47;;;;;;;10.12;100.00;96835.91;10404006;28;20180;-74
2022/10/07 22:47:47;;;;;;;11.67;6.10;;;;;;;10.10;100.00;96821.31;10408343;28;20212;-73
2022/10/07 22:52:48;;;;;;;13.83;7.13;;;;;;;10.00;100.00;96824.84;10407651;28;20192;-73
2022/10/07 22:57:49;;;;;;;8.87;5.30;;;;;;;10.00;100.00;96819.59;10408096;28;20192;-73
2022/10/07 23:02:52;;;;;;;14.97;6.23;;;;;;;9.86;100.00;96814.88;10410880;28;20196;-73
2022/10/07 23:07:52;;;;;;;14.83;5.67;;;;;;;9.90;100.00;96816.22;10398515;28;20216;-73
2022/10/07 23:12:52;;;;;;;14.37;6.27;;;;;;;9.87;100.00;96813.91;10415534;28;20191;-73
2022/10/07 23:17:53;;;;;;;13.10;6.20;;;;;;;9.87;100.00;96816.53;10415830;28;20734;-73
2022/10/07 23:22:53;;;;;;;15.63;6.70;;;;;;;9.81;100.00;96807.47;10415578;28;20739;-73
2022/10/07 23:27:54;;;;;;;14.67;7.03;;;;;;;9.85;100.00;96809.78;10415368;28;20302;-73
2022/10/07 23:32:55;;;;;;;13.57;5.80;;;;;;;9.83;100.00;96804.72;10414779;28;20184;-73
2022/10/07 23:37:56;;;;;;;16.27;6.00;;;;;;;9.78;100.00;96801.72;10415022;28;20240;-73
2022/10/07 23:42:56;;;;;;;20.53;6.87;;;;;;;9.88;100.00;96804.28;10414176;28;20192;-74
2022/10/07 23:47:57;;;;;;;16.20;6.33;;;;;;;9.81;100.00;96793.56;10414848;28;20213;-73